sensor_id;sensor_type;location;lat;lon;timestamp;P1;durP1;ratioP1;P2;durP2;ratioP2
78336;SDS011;67610;51.588;7.002;2023-03-23T00:01:06;6.43;;;2.72;;
78336;SDS011;67610;51.588;7.002;2023-03-23T00:03:35;4.78;;;2.63;;
78336;SDS011;67610;51.588;7.002;2023-03-23T00:06:04;5.65;;;2.72;;
78336;SDS011;67610;51.588;7.002;2023-03-23T00:08:35;5.45;;;2.80;;
78336;SDS011;67610;51.588;7.002;2023-03-23T00:11:14;6.45;;;2.50;;
78336;SDS011;67610;51.588;7.002;2023-03-23T00:13:43;5.35;;;2.50;;
78336;SDS011;67610;51.588;7.002;2023-03-23T00:16:09;5.05;;;2.50;;
78336;SDS011;67610;51.588;7.002;2023-03-23T00:18:49;5.57;;;2.47;;
78336;SDS011;67610;51.588;7.002;2023-03-23T00:21:19;5.25;;;2.60;;
78336;SDS011;67610;51.588;7.002;2023-03-23T00:23:45;4.95;;;2.50;;
78336;SDS011;67610;51.588;7.002;2023-03-23T00:26:10;3.72;;;2.42;;
78336;SDS011;67610;51.588;7.002;2023-03-23T00:28:37;4.15;;;2.55;;
78336;SDS011;67610;51.588;7.002;2023-03-23T00:31:05;4.43;;;2.50;;
78336;SDS011;67610;51.588;7.002;2023-03-23T00:33:33;3.53;;;2.53;;
78336;SDS011;67610;51.588;7.002;2023-03-23T00:36:12;4.35;;;2.50;;
78336;SDS011;67610;51.588;7.002;2023-03-23T00:38:39;3.13;;;2.30;;
78336;SDS011;67610;51.588;7.002;2023-03-23T00:41:05;4.15;;;2.30;;
78336;SDS011;67610;51.588;7.002;2023-03-23T00:43:31;6.30;;;2.50;;
78336;SDS011;67610;51.588;7.002;2023-03-23T00:46:00;3.70;;;2.35;;
78336;SDS011;67610;51.588;7.002;2023-03-23T00:48:28;4.50;;;2.55;;
78336;SDS011;67610;51.588;7.002;2023-03-23T00:50:54;7.40;;;2.33;;
78336;SDS011;67610;51.588;7.002;2023-03-23T00:53:20;3.28;;;2.42;;
78336;SDS011;67610;51.588;7.002;2023-03-23T00:55:47;4.13;;;2.53;;
78336;SDS011;67610;51.588;7.002;2023-03-23T00:58:14;4.47;;;2.70;;
78336;SDS011;67610;51.588;7.002;2023-03-23T01:00:40;4.88;;;2.60;;
78336;SDS011;67610;51.588;7.002;2023-03-23T01:03:07;5.07;;;2.40;;
78336;SDS011;67610;51.588;7.002;2023-03-23T01:05:37;4.88;;;2.40;;
78336;SDS011;67610;51.588;7.002;2023-03-23T01:08:04;4.45;;;2.53;;
78336;SDS011;67610;51.588;7.002;2023-03-23T01:10:31;4.80;;;2.47;;
78336;SDS011;67610;51.588;7.002;2023-03-23T01:13:03;4.82;;;2.55;;
78336;SDS011;67610;51.588;7.002;2023-03-23T01:15:30;3.78;;;2.30;;
78336;SDS011;67610;51.588;7.002;2023-03-23T01:17:55;4.03;;;2.20;;
78336;SDS011;67610;51.588;7.002;2023-03-23T01:20:21;3.88;;;2.40;;
78336;SDS011;67610;51.588;7.002;2023-03-23T01:22:47;6.00;;;2.50;;
78336;SDS011;67610;51.588;7.002;2023-03-23T01:25:13;3.53;;;2.20;;
78336;SDS011;67610;51.588;7.002;2023-03-23T01:27:39;4.28;;;2.50;;
78336;SDS011;67610;51.588;7.002;2023-03-23T01:30:05;5.13;;;2.53;;
78336;SDS011;67610;51.588;7.002;2023-03-23T01:32:35;4.85;;;2.47;;
78336;SDS011;67610;51.588;7.002;2023-03-23T01:35:00;3.58;;;2.58;;
78336;SDS011;67610;51.588;7.002;2023-03-23T01:37:25;4.68;;;2.47;;
78336;SDS011;67610;51.588;7.002;2023-03-23T01:39:55;3.72;;;2.25;;
78336;SDS011;67610;51.588;7.002;2023-03-23T01:42:25;3.53;;;2.38;;
78336;SDS011;67610;51.588;7.002;2023-03-23T01:47:20;5.13;;;2.65;;
78336;SDS011;67610;51.588;7.002;2023-03-23T01:49:49;4.30;;;2.20;;
78336;SDS011;67610;51.588;7.002;2023-03-23T01:52:16;4.15;;;2.45;;
78336;SDS011;67610;51.588;7.002;2023-03-23T01:54:49;4.53;;;2.50;;
78336;SDS011;67610;51.588;7.002;2023-03-23T01:57:18;4.22;;;2.25;;
78336;SDS011;67610;51.588;7.002;2023-03-23T01:59:47;4.35;;;2.53;;
78336;SDS011;67610;51.588;7.002;2023-03-23T02:02:16;4.28;;;2.10;;
78336;SDS011;67610;51.588;7.002;2023-03-23T02:04:43;4.65;;;2.20;;
78336;SDS011;67610;51.588;7.002;2023-03-23T02:07:09;4.00;;;2.38;;
78336;SDS011;67610;51.588;7.002;2023-03-23T02:09:37;4.47;;;2.20;;
78336;SDS011;67610;51.588;7.002;2023-03-23T02:12:03;4.10;;;2.22;;
78336;SDS011;67610;51.588;7.002;2023-03-23T02:14:28;3.70;;;1.90;;
78336;SDS011;67610;51.588;7.002;2023-03-23T02:27:47;5.53;;;2.38;;
78336;SDS011;67610;51.588;7.002;2023-03-23T02:36:14;3.58;;;2.03;;
78336;SDS011;67610;51.588;7.002;2023-03-23T02:39:03;3.92;;;2.35;;
78336;SDS011;67610;51.588;7.002;2023-03-23T02:41:36;4.65;;;2.20;;
78336;SDS011;67610;51.588;7.002;2023-03-23T02:44:08;4.22;;;2.10;;
78336;SDS011;67610;51.588;7.002;2023-03-23T02:46:35;3.85;;;2.00;;
78336;SDS011;67610;51.588;7.002;2023-03-23T02:49:02;4.03;;;2.20;;
78336;SDS011;67610;51.588;7.002;2023-03-23T02:51:30;3.88;;;2.28;;
78336;SDS011;67610;51.588;7.002;2023-03-23T02:53:59;3.95;;;2.10;;
78336;SDS011;67610;51.588;7.002;2023-03-23T02:56:25;4.30;;;2.35;;
78336;SDS011;67610;51.588;7.002;2023-03-23T02:58:54;4.15;;;2.20;;
78336;SDS011;67610;51.588;7.002;2023-03-23T03:03:55;4.32;;;2.30;;
78336;SDS011;67610;51.588;7.002;2023-03-23T03:08:59;4.32;;;2.40;;
78336;SDS011;67610;51.588;7.002;2023-03-23T03:11:39;3.65;;;2.35;;
78336;SDS011;67610;51.588;7.002;2023-03-23T03:14:11;4.32;;;2.05;;
78336;SDS011;67610;51.588;7.002;2023-03-23T03:16:49;4.07;;;2.35;;
78336;SDS011;67610;51.588;7.002;2023-03-23T03:19:27;3.70;;;2.30;;
78336;SDS011;67610;51.588;7.002;2023-03-23T03:21:56;4.53;;;2.70;;
78336;SDS011;67610;51.588;7.002;2023-03-23T03:24:24;3.40;;;2.20;;
78336;SDS011;67610;51.588;7.002;2023-03-23T03:29:20;4.13;;;2.33;;
78336;SDS011;67610;51.588;7.002;2023-03-23T03:31:49;4.85;;;2.30;;
78336;SDS011;67610;51.588;7.002;2023-03-23T03:34:16;5.57;;;2.20;;
78336;SDS011;67610;51.588;7.002;2023-03-23T03:36:43;2.70;;;2.03;;
78336;SDS011;67610;51.588;7.002;2023-03-23T03:39:10;3.60;;;2.28;;
78336;SDS011;67610;51.588;7.002;2023-03-23T03:41:38;3.13;;;2.10;;
78336;SDS011;67610;51.588;7.002;2023-03-23T03:44:04;3.55;;;2.20;;
78336;SDS011;67610;51.588;7.002;2023-03-23T03:46:31;3.80;;;2.00;;
78336;SDS011;67610;51.588;7.002;2023-03-23T03:48:57;3.60;;;2.10;;
78336;SDS011;67610;51.588;7.002;2023-03-23T03:51:23;3.53;;;2.28;;
78336;SDS011;67610;51.588;7.002;2023-03-23T03:53:50;4.35;;;2.15;;
78336;SDS011;67610;51.588;7.002;2023-03-23T03:56:16;4.45;;;2.10;;
78336;SDS011;67610;51.588;7.002;2023-03-23T03:58:42;4.82;;;2.40;;
78336;SDS011;67610;51.588;7.002;2023-03-23T04:01:08;3.42;;;2.10;;
78336;SDS011;67610;51.588;7.002;2023-03-23T04:03:38;3.75;;;2.55;;
78336;SDS011;67610;51.588;7.002;2023-03-23T04:06:04;3.10;;;2.10;;
78336;SDS011;67610;51.588;7.002;2023-03-23T04:08:30;3.97;;;2.30;;
78336;SDS011;67610;51.588;7.002;2023-03-23T04:10:56;4.82;;;2.30;;
78336;SDS011;67610;51.588;7.002;2023-03-23T04:13:22;4.00;;;2.20;;
78336;SDS011;67610;51.588;7.002;2023-03-23T04:15:48;4.40;;;2.20;;
78336;SDS011;67610;51.588;7.002;2023-03-23T04:18:14;3.70;;;2.20;;
78336;SDS011;67610;51.588;7.002;2023-03-23T04:20:42;4.68;;;2.20;;
78336;SDS011;67610;51.588;7.002;2023-03-23T04:23:09;4.00;;;2.00;;
78336;SDS011;67610;51.588;7.002;2023-03-23T04:25:35;3.13;;;1.90;;
78336;SDS011;67610;51.588;7.002;2023-03-23T04:28:00;3.00;;;2.00;;
78336;SDS011;67610;51.588;7.002;2023-03-23T04:30:27;3.10;;;2.10;;
78336;SDS011;67610;51.588;7.002;2023-03-23T04:32:55;4.45;;;2.17;;
78336;SDS011;67610;51.588;7.002;2023-03-23T04:35:22;4.90;;;2.13;;
78336;SDS011;67610;51.588;7.002;2023-03-23T04:37:51;4.50;;;2.15;;
78336;SDS011;67610;51.588;7.002;2023-03-23T04:40:17;4.60;;;2.30;;
78336;SDS011;67610;51.588;7.002;2023-03-23T04:42:43;4.18;;;2.20;;
78336;SDS011;67610;51.588;7.002;2023-03-23T04:45:11;3.78;;;2.15;;
78336;SDS011;67610;51.588;7.002;2023-03-23T04:47:40;3.92;;;2.15;;
78336;SDS011;67610;51.588;7.002;2023-03-23T04:50:10;2.88;;;2.00;;
78336;SDS011;67610;51.588;7.002;2023-03-23T04:52:38;4.78;;;1.98;;
78336;SDS011;67610;51.588;7.002;2023-03-23T04:55:05;3.65;;;2.30;;
78336;SDS011;67610;51.588;7.002;2023-03-23T04:57:32;3.72;;;2.22;;
78336;SDS011;67610;51.588;7.002;2023-03-23T04:59:58;3.60;;;2.25;;
78336;SDS011;67610;51.588;7.002;2023-03-23T05:02:24;3.38;;;2.22;;
78336;SDS011;67610;51.588;7.002;2023-03-23T05:04:50;3.55;;;2.28;;
78336;SDS011;67610;51.588;7.002;2023-03-23T05:07:15;3.47;;;2.10;;
78336;SDS011;67610;51.588;7.002;2023-03-23T05:09:41;3.65;;;2.20;;
78336;SDS011;67610;51.588;7.002;2023-03-23T05:12:08;4.28;;;2.20;;
78336;SDS011;67610;51.588;7.002;2023-03-23T05:14:34;4.38;;;2.30;;
78336;SDS011;67610;51.588;7.002;2023-03-23T05:17:01;4.38;;;2.20;;
78336;SDS011;67610;51.588;7.002;2023-03-23T05:19:26;3.95;;;2.40;;
78336;SDS011;67610;51.588;7.002;2023-03-23T05:21:53;3.03;;;2.00;;
78336;SDS011;67610;51.588;7.002;2023-03-23T05:24:19;3.75;;;2.25;;
78336;SDS011;67610;51.588;7.002;2023-03-23T05:26:44;4.72;;;2.38;;
78336;SDS011;67610;51.588;7.002;2023-03-23T05:29:13;3.80;;;2.30;;
78336;SDS011;67610;51.588;7.002;2023-03-23T05:31:39;4.55;;;2.13;;
78336;SDS011;67610;51.588;7.002;2023-03-23T05:34:04;3.88;;;2.50;;
78336;SDS011;67610;51.588;7.002;2023-03-23T05:36:30;3.85;;;2.20;;
78336;SDS011;67610;51.588;7.002;2023-03-23T05:38:55;3.40;;;2.10;;
78336;SDS011;67610;51.588;7.002;2023-03-23T05:41:25;4.45;;;2.13;;
78336;SDS011;67610;51.588;7.002;2023-03-23T05:43:50;3.67;;;2.38;;
78336;SDS011;67610;51.588;7.002;2023-03-23T05:46:16;3.53;;;2.22;;
78336;SDS011;67610;51.588;7.002;2023-03-23T05:48:42;4.85;;;2.45;;
78336;SDS011;67610;51.588;7.002;2023-03-23T05:51:08;4.40;;;2.40;;
78336;SDS011;67610;51.588;7.002;2023-03-23T05:53:33;3.97;;;2.47;;
78336;SDS011;67610;51.588;7.002;2023-03-23T05:56:00;4.05;;;2.55;;
78336;SDS011;67610;51.588;7.002;2023-03-23T05:58:26;3.38;;;2.30;;
78336;SDS011;67610;51.588;7.002;2023-03-23T06:00:52;4.00;;;2.42;;
78336;SDS011;67610;51.588;7.002;2023-03-23T06:03:17;5.82;;;2.67;;
78336;SDS011;67610;51.588;7.002;2023-03-23T06:05:43;4.22;;;2.58;;
78336;SDS011;67610;51.588;7.002;2023-03-23T06:08:10;4.38;;;2.47;;
78336;SDS011;67610;51.588;7.002;2023-03-23T06:10:36;3.92;;;2.30;;
78336;SDS011;67610;51.588;7.002;2023-03-23T06:13:01;4.80;;;2.42;;
78336;SDS011;67610;51.588;7.002;2023-03-23T06:15:28;5.03;;;2.17;;
78336;SDS011;67610;51.588;7.002;2023-03-23T06:17:58;3.92;;;2.58;;
78336;SDS011;67610;51.588;7.002;2023-03-23T06:20:24;4.85;;;2.45;;
78336;SDS011;67610;51.588;7.002;2023-03-23T06:22:50;4.10;;;2.53;;
78336;SDS011;67610;51.588;7.002;2023-03-23T06:25:16;3.75;;;2.30;;
78336;SDS011;67610;51.588;7.002;2023-03-23T06:27:42;4.13;;;2.60;;
78336;SDS011;67610;51.588;7.002;2023-03-23T06:30:09;4.05;;;2.60;;
78336;SDS011;67610;51.588;7.002;2023-03-23T06:32:35;4.03;;;2.22;;
78336;SDS011;67610;51.588;7.002;2023-03-23T06:35:02;5.70;;;2.72;;
78336;SDS011;67610;51.588;7.002;2023-03-23T06:37:28;3.92;;;2.20;;
78336;SDS011;67610;51.588;7.002;2023-03-23T06:39:54;4.10;;;2.47;;
78336;SDS011;67610;51.588;7.002;2023-03-23T06:42:19;4.03;;;2.33;;
78336;SDS011;67610;51.588;7.002;2023-03-23T06:44:46;3.85;;;2.40;;
78336;SDS011;67610;51.588;7.002;2023-03-23T06:47:12;4.28;;;2.35;;
78336;SDS011;67610;51.588;7.002;2023-03-23T06:49:37;5.97;;;2.63;;
78336;SDS011;67610;51.588;7.002;2023-03-23T06:52:02;4.25;;;2.42;;
78336;SDS011;67610;51.588;7.002;2023-03-23T06:54:28;5.03;;;2.50;;
78336;SDS011;67610;51.588;7.002;2023-03-23T06:56:54;4.78;;;2.47;;
78336;SDS011;67610;51.588;7.002;2023-03-23T06:59:19;5.28;;;2.50;;
78336;SDS011;67610;51.588;7.002;2023-03-23T07:01:45;4.85;;;2.35;;
78336;SDS011;67610;51.588;7.002;2023-03-23T07:04:11;4.15;;;2.22;;
78336;SDS011;67610;51.588;7.002;2023-03-23T07:06:37;3.92;;;2.30;;
78336;SDS011;67610;51.588;7.002;2023-03-23T07:09:03;4.28;;;2.28;;
78336;SDS011;67610;51.588;7.002;2023-03-23T07:11:29;6.05;;;2.70;;
78336;SDS011;67610;51.588;7.002;2023-03-23T07:13:54;4.60;;;2.42;;
78336;SDS011;67610;51.588;7.002;2023-03-23T07:16:19;4.63;;;2.50;;
78336;SDS011;67610;51.588;7.002;2023-03-23T07:18:45;4.82;;;2.40;;
78336;SDS011;67610;51.588;7.002;2023-03-23T07:21:11;5.72;;;2.55;;
78336;SDS011;67610;51.588;7.002;2023-03-23T07:23:36;5.53;;;2.10;;
78336;SDS011;67610;51.588;7.002;2023-03-23T07:26:01;4.75;;;2.42;;
78336;SDS011;67610;51.588;7.002;2023-03-23T07:28:28;4.57;;;2.33;;
78336;SDS011;67610;51.588;7.002;2023-03-23T07:30:53;5.03;;;2.20;;
78336;SDS011;67610;51.588;7.002;2023-03-23T07:33:19;4.03;;;2.35;;
78336;SDS011;67610;51.588;7.002;2023-03-23T07:35:45;6.07;;;2.55;;
78336;SDS011;67610;51.588;7.002;2023-03-23T07:38:10;3.72;;;2.10;;
78336;SDS011;67610;51.588;7.002;2023-03-23T07:40:36;4.80;;;2.60;;
78336;SDS011;67610;51.588;7.002;2023-03-23T07:43:02;4.28;;;2.20;;
78336;SDS011;67610;51.588;7.002;2023-03-23T07:45:28;4.03;;;1.95;;
78336;SDS011;67610;51.588;7.002;2023-03-23T07:47:55;4.65;;;2.10;;
78336;SDS011;67610;51.588;7.002;2023-03-23T07:50:21;5.40;;;2.47;;
78336;SDS011;67610;51.588;7.002;2023-03-23T07:52:49;6.72;;;2.85;;
78336;SDS011;67610;51.588;7.002;2023-03-23T07:55:15;3.45;;;2.28;;
78336;SDS011;67610;51.588;7.002;2023-03-23T07:57:43;5.38;;;2.83;;
78336;SDS011;67610;51.588;7.002;2023-03-23T08:00:09;4.03;;;2.30;;
78336;SDS011;67610;51.588;7.002;2023-03-23T08:02:40;4.78;;;2.17;;
78336;SDS011;67610;51.588;7.002;2023-03-23T08:05:12;4.05;;;2.28;;
78336;SDS011;67610;51.588;7.002;2023-03-23T08:07:41;5.20;;;2.10;;
78336;SDS011;67610;51.588;7.002;2023-03-23T08:10:08;4.78;;;1.90;;
78336;SDS011;67610;51.588;7.002;2023-03-23T08:12:38;3.58;;;1.83;;
78336;SDS011;67610;51.588;7.002;2023-03-23T08:15:05;5.20;;;2.10;;
78336;SDS011;67610;51.588;7.002;2023-03-23T08:17:31;4.70;;;2.00;;
78336;SDS011;67610;51.588;7.002;2023-03-23T08:19:58;4.13;;;1.92;;
78336;SDS011;67610;51.588;7.002;2023-03-23T08:22:23;5.07;;;2.00;;
78336;SDS011;67610;51.588;7.002;2023-03-23T08:24:49;5.28;;;2.13;;
78336;SDS011;67610;51.588;7.002;2023-03-23T08:27:15;5.10;;;1.95;;
78336;SDS011;67610;51.588;7.002;2023-03-23T08:29:40;4.72;;;2.00;;
78336;SDS011;67610;51.588;7.002;2023-03-23T08:34:34;4.05;;;1.90;;
78336;SDS011;67610;51.588;7.002;2023-03-23T08:37:00;8.82;;;2.20;;
78336;SDS011;67610;51.588;7.002;2023-03-23T08:39:25;5.40;;;2.10;;
78336;SDS011;67610;51.588;7.002;2023-03-23T08:41:51;3.92;;;2.05;;
78336;SDS011;67610;51.588;7.002;2023-03-23T08:44:16;4.72;;;1.90;;
78336;SDS011;67610;51.588;7.002;2023-03-23T08:46:41;5.20;;;1.83;;
78336;SDS011;67610;51.588;7.002;2023-03-23T08:49:07;4.95;;;2.28;;
78336;SDS011;67610;51.588;7.002;2023-03-23T08:51:33;4.32;;;2.10;;
78336;SDS011;67610;51.588;7.002;2023-03-23T08:53:58;4.80;;;1.88;;
78336;SDS011;67610;51.588;7.002;2023-03-23T08:56:24;3.78;;;1.90;;
78336;SDS011;67610;51.588;7.002;2023-03-23T08:58:49;5.22;;;2.10;;
78336;SDS011;67610;51.588;7.002;2023-03-23T09:01:15;6.32;;;2.22;;
78336;SDS011;67610;51.588;7.002;2023-03-23T09:03:41;5.10;;;2.30;;
78336;SDS011;67610;51.588;7.002;2023-03-23T09:06:07;7.85;;;2.33;;
78336;SDS011;67610;51.588;7.002;2023-03-23T09:08:34;5.88;;;2.38;;
78336;SDS011;67610;51.588;7.002;2023-03-23T09:11:03;3.97;;;2.08;;
78336;SDS011;67610;51.588;7.002;2023-03-23T09:13:31;4.15;;;2.22;;
78336;SDS011;67610;51.588;7.002;2023-03-23T09:15:58;4.60;;;2.13;;
78336;SDS011;67610;51.588;7.002;2023-03-23T09:18:23;5.68;;;2.30;;
78336;SDS011;67610;51.588;7.002;2023-03-23T09:20:49;3.50;;;1.98;;
78336;SDS011;67610;51.588;7.002;2023-03-23T09:23:16;4.28;;;1.92;;
78336;SDS011;67610;51.588;7.002;2023-03-23T09:25:41;5.95;;;2.50;;
78336;SDS011;67610;51.588;7.002;2023-03-23T09:28:07;5.00;;;2.15;;
78336;SDS011;67610;51.588;7.002;2023-03-23T09:30:34;8.82;;;2.30;;
78336;SDS011;67610;51.588;7.002;2023-03-23T09:33:05;5.13;;;2.05;;
78336;SDS011;67610;51.588;7.002;2023-03-23T09:35:34;4.50;;;2.17;;
78336;SDS011;67610;51.588;7.002;2023-03-23T09:38:02;3.60;;;1.80;;
78336;SDS011;67610;51.588;7.002;2023-03-23T09:40:31;2.45;;;1.50;;
78336;SDS011;67610;51.588;7.002;2023-03-23T09:48:59;2.35;;;1.38;;
78336;SDS011;67610;51.588;7.002;2023-03-23T09:54:17;4.15;;;1.65;;
78336;SDS011;67610;51.588;7.002;2023-03-23T09:56:47;2.97;;;1.42;;
78336;SDS011;67610;51.588;7.002;2023-03-23T09:59:37;4.88;;;1.67;;
78336;SDS011;67610;51.588;7.002;2023-03-23T10:09:55;3.15;;;1.30;;
78336;SDS011;67610;51.588;7.002;2023-03-23T10:12:33;4.53;;;1.67;;
78336;SDS011;67610;51.588;7.002;2023-03-23T10:17:44;3.15;;;1.50;;
78336;SDS011;67610;51.588;7.002;2023-03-23T10:20:25;3.30;;;1.40;;
78336;SDS011;67610;51.588;7.002;2023-03-23T10:22:58;4.95;;;1.60;;
78336;SDS011;67610;51.588;7.002;2023-03-23T10:25:45;3.85;;;1.60;;
78336;SDS011;67610;51.588;7.002;2023-03-23T10:28:13;2.63;;;1.48;;
78336;SDS011;67610;51.588;7.002;2023-03-23T10:30:45;6.53;;;1.50;;
78336;SDS011;67610;51.588;7.002;2023-03-23T10:33:35;2.70;;;1.55;;
78336;SDS011;67610;51.588;7.002;2023-03-23T10:38:42;4.43;;;1.80;;
78336;SDS011;67610;51.588;7.002;2023-03-23T10:41:11;3.90;;;1.83;;
78336;SDS011;67610;51.588;7.002;2023-03-23T10:43:38;2.88;;;1.65;;
78336;SDS011;67610;51.588;7.002;2023-03-23T10:49:09;4.80;;;1.70;;
78336;SDS011;67610;51.588;7.002;2023-03-23T10:51:40;3.78;;;2.05;;
78336;SDS011;67610;51.588;7.002;2023-03-23T10:54:08;4.55;;;1.75;;
78336;SDS011;67610;51.588;7.002;2023-03-23T10:56:36;2.97;;;1.40;;
78336;SDS011;67610;51.588;7.002;2023-03-23T11:01:45;3.25;;;1.73;;
78336;SDS011;67610;51.588;7.002;2023-03-23T11:04:16;3.45;;;1.60;;
78336;SDS011;67610;51.588;7.002;2023-03-23T11:06:46;4.40;;;1.77;;
78336;SDS011;67610;51.588;7.002;2023-03-23T11:09:16;2.53;;;1.70;;
78336;SDS011;67610;51.588;7.002;2023-03-23T11:14:26;2.13;;;1.50;;
78336;SDS011;67610;51.588;7.002;2023-03-23T11:19:27;5.55;;;2.25;;
78336;SDS011;67610;51.588;7.002;2023-03-23T11:24:34;4.95;;;1.80;;
78336;SDS011;67610;51.588;7.002;2023-03-23T11:27:08;3.63;;;1.88;;
78336;SDS011;67610;51.588;7.002;2023-03-23T11:29:36;5.75;;;2.08;;
78336;SDS011;67610;51.588;7.002;2023-03-23T11:32:09;3.47;;;1.85;;
78336;SDS011;67610;51.588;7.002;2023-03-23T11:39:54;4.45;;;1.83;;
78336;SDS011;67610;51.588;7.002;2023-03-23T11:47:46;5.03;;;2.00;;
78336;SDS011;67610;51.588;7.002;2023-03-23T11:50:30;4.65;;;1.88;;
78336;SDS011;67610;51.588;7.002;2023-03-23T11:55:57;3.40;;;2.15;;
78336;SDS011;67610;51.588;7.002;2023-03-23T11:58:36;5.15;;;1.70;;
78336;SDS011;67610;51.588;7.002;2023-03-23T12:09:02;4.55;;;1.80;;
78336;SDS011;67610;51.588;7.002;2023-03-23T12:14:38;3.58;;;1.60;;
78336;SDS011;67610;51.588;7.002;2023-03-23T12:17:16;3.88;;;1.80;;
78336;SDS011;67610;51.588;7.002;2023-03-23T12:19:55;4.00;;;1.83;;
78336;SDS011;67610;51.588;7.002;2023-03-23T12:25:15;4.43;;;2.03;;
78336;SDS011;67610;51.588;7.002;2023-03-23T12:41:09;5.93;;;2.87;;
78336;SDS011;67610;51.588;7.002;2023-03-23T12:48:48;5.72;;;3.30;;
78336;SDS011;67610;51.588;7.002;2023-03-23T12:51:27;5.43;;;3.08;;
78336;SDS011;67610;51.588;7.002;2023-03-23T12:57:33;5.05;;;3.00;;
78336;SDS011;67610;51.588;7.002;2023-03-23T13:04:47;5.70;;;3.33;;
78336;SDS011;67610;51.588;7.002;2023-03-23T13:07:19;5.70;;;3.33;;
78336;SDS011;67610;51.588;7.002;2023-03-23T13:12:37;6.95;;;3.33;;
78336;SDS011;67610;51.588;7.002;2023-03-23T13:18:31;5.10;;;3.20;;
78336;SDS011;67610;51.588;7.002;2023-03-23T13:23:42;5.20;;;2.90;;
78336;SDS011;67610;51.588;7.002;2023-03-23T13:26:16;7.60;;;3.15;;
78336;SDS011;67610;51.588;7.002;2023-03-23T13:31:22;4.32;;;2.78;;
78336;SDS011;67610;51.588;7.002;2023-03-23T13:34:03;4.75;;;2.80;;
78336;SDS011;67610;51.588;7.002;2023-03-23T13:36:57;8.45;;;3.55;;
78336;SDS011;67610;51.588;7.002;2023-03-23T13:39:29;4.93;;;3.22;;
78336;SDS011;67610;51.588;7.002;2023-03-23T13:42:18;6.88;;;3.53;;
78336;SDS011;67610;51.588;7.002;2023-03-23T13:50:09;4.28;;;3.00;;
78336;SDS011;67610;51.588;7.002;2023-03-23T14:03:00;6.28;;;2.60;;
78336;SDS011;67610;51.588;7.002;2023-03-23T14:05:39;5.00;;;2.90;;
78336;SDS011;67610;51.588;7.002;2023-03-23T14:10:34;6.40;;;2.67;;
78336;SDS011;67610;51.588;7.002;2023-03-23T14:13:03;6.13;;;2.60;;
78336;SDS011;67610;51.588;7.002;2023-03-23T14:15:36;4.63;;;3.15;;
78336;SDS011;67610;51.588;7.002;2023-03-23T14:18:11;5.78;;;2.30;;
78336;SDS011;67610;51.588;7.002;2023-03-23T14:20:40;4.65;;;2.33;;
78336;SDS011;67610;51.588;7.002;2023-03-23T14:23:13;4.72;;;2.22;;
78336;SDS011;67610;51.588;7.002;2023-03-23T14:25:40;5.85;;;2.65;;
78336;SDS011;67610;51.588;7.002;2023-03-23T14:28:16;4.28;;;2.22;;
78336;SDS011;67610;51.588;7.002;2023-03-23T14:30:46;4.03;;;2.00;;
78336;SDS011;67610;51.588;7.002;2023-03-23T14:33:13;6.22;;;2.63;;
78336;SDS011;67610;51.588;7.002;2023-03-23T14:35:40;5.72;;;3.13;;
78336;SDS011;67610;51.588;7.002;2023-03-23T14:38:15;7.15;;;2.70;;
78336;SDS011;67610;51.588;7.002;2023-03-23T14:40:44;7.47;;;2.72;;
78336;SDS011;67610;51.588;7.002;2023-03-23T14:43:10;6.90;;;3.80;;
78336;SDS011;67610;51.588;7.002;2023-03-23T14:45:40;7.63;;;3.95;;
78336;SDS011;67610;51.588;7.002;2023-03-23T14:48:06;6.13;;;3.50;;
78336;SDS011;67610;51.588;7.002;2023-03-23T14:50:37;5.80;;;2.78;;
78336;SDS011;67610;51.588;7.002;2023-03-23T14:53:24;4.10;;;2.50;;
78336;SDS011;67610;51.588;7.002;2023-03-23T14:55:54;4.80;;;2.70;;
78336;SDS011;67610;51.588;7.002;2023-03-23T14:58:22;3.47;;;2.30;;
78336;SDS011;67610;51.588;7.002;2023-03-23T15:00:54;4.13;;;2.30;;
78336;SDS011;67610;51.588;7.002;2023-03-23T15:03:24;4.55;;;2.60;;
78336;SDS011;67610;51.588;7.002;2023-03-23T15:05:52;5.15;;;2.42;;
78336;SDS011;67610;51.588;7.002;2023-03-23T15:11:12;4.18;;;2.50;;
78336;SDS011;67610;51.588;7.002;2023-03-23T15:13:46;4.13;;;2.72;;
78336;SDS011;67610;51.588;7.002;2023-03-23T15:16:27;6.70;;;2.90;;
78336;SDS011;67610;51.588;7.002;2023-03-23T15:18:58;5.90;;;2.80;;
78336;SDS011;67610;51.588;7.002;2023-03-23T15:21:31;4.15;;;2.63;;
78336;SDS011;67610;51.588;7.002;2023-03-23T15:24:00;6.13;;;2.90;;
78336;SDS011;67610;51.588;7.002;2023-03-23T15:26:29;4.03;;;2.50;;
78336;SDS011;67610;51.588;7.002;2023-03-23T15:29:11;4.55;;;2.47;;
78336;SDS011;67610;51.588;7.002;2023-03-23T15:31:41;5.03;;;2.75;;
78336;SDS011;67610;51.588;7.002;2023-03-23T15:34:19;3.45;;;2.10;;
78336;SDS011;67610;51.588;7.002;2023-03-23T15:36:51;6.10;;;2.47;;
78336;SDS011;67610;51.588;7.002;2023-03-23T15:39:20;4.22;;;2.20;;
78336;SDS011;67610;51.588;7.002;2023-03-23T15:41:47;4.18;;;2.45;;
78336;SDS011;67610;51.588;7.002;2023-03-23T15:44:31;6.13;;;2.30;;
78336;SDS011;67610;51.588;7.002;2023-03-23T15:47:17;5.75;;;2.35;;
78336;SDS011;67610;51.588;7.002;2023-03-23T15:49:45;4.43;;;2.45;;
78336;SDS011;67610;51.588;7.002;2023-03-23T15:52:12;5.60;;;2.38;;
78336;SDS011;67610;51.588;7.002;2023-03-23T15:54:38;4.80;;;2.22;;
78336;SDS011;67610;51.588;7.002;2023-03-23T15:57:11;3.75;;;2.30;;
78336;SDS011;67610;51.588;7.002;2023-03-23T15:59:37;4.82;;;2.00;;
78336;SDS011;67610;51.588;7.002;2023-03-23T16:02:02;5.13;;;2.00;;
78336;SDS011;67610;51.588;7.002;2023-03-23T16:04:28;4.57;;;2.08;;
78336;SDS011;67610;51.588;7.002;2023-03-23T16:06:55;3.00;;;1.92;;
78336;SDS011;67610;51.588;7.002;2023-03-23T16:09:21;4.28;;;2.00;;
78336;SDS011;67610;51.588;7.002;2023-03-23T16:11:47;3.47;;;1.90;;
78336;SDS011;67610;51.588;7.002;2023-03-23T16:14:13;4.63;;;2.28;;
78336;SDS011;67610;51.588;7.002;2023-03-23T16:16:43;6.00;;;2.00;;
78336;SDS011;67610;51.588;7.002;2023-03-23T16:19:11;5.53;;;2.20;;
78336;SDS011;67610;51.588;7.002;2023-03-23T16:21:38;5.43;;;2.20;;
78336;SDS011;67610;51.588;7.002;2023-03-23T16:24:04;4.10;;;1.95;;
78336;SDS011;67610;51.588;7.002;2023-03-23T16:26:29;4.43;;;2.10;;
78336;SDS011;67610;51.588;7.002;2023-03-23T16:28:55;3.67;;;2.00;;
78336;SDS011;67610;51.588;7.002;2023-03-23T16:31:20;4.97;;;2.30;;
78336;SDS011;67610;51.588;7.002;2023-03-23T16:33:45;4.63;;;2.13;;
78336;SDS011;67610;51.588;7.002;2023-03-23T16:36:11;5.38;;;2.10;;
78336;SDS011;67610;51.588;7.002;2023-03-23T16:38:38;4.82;;;2.10;;
78336;SDS011;67610;51.588;7.002;2023-03-23T16:41:04;4.68;;;2.00;;
78336;SDS011;67610;51.588;7.002;2023-03-23T16:43:30;4.35;;;2.20;;
78336;SDS011;67610;51.588;7.002;2023-03-23T16:45:56;5.25;;;2.08;;
78336;SDS011;67610;51.588;7.002;2023-03-23T16:48:21;3.72;;;2.13;;
78336;SDS011;67610;51.588;7.002;2023-03-23T16:50:47;4.07;;;1.95;;
78336;SDS011;67610;51.588;7.002;2023-03-23T16:53:13;3.83;;;1.92;;
78336;SDS011;67610;51.588;7.002;2023-03-23T16:55:38;5.55;;;2.20;;
78336;SDS011;67610;51.588;7.002;2023-03-23T16:58:05;5.68;;;2.05;;
78336;SDS011;67610;51.588;7.002;2023-03-23T17:00:31;4.60;;;2.55;;
78336;SDS011;67610;51.588;7.002;2023-03-23T17:02:56;6.20;;;2.40;;
78336;SDS011;67610;51.588;7.002;2023-03-23T17:05:26;6.72;;;2.20;;
78336;SDS011;67610;51.588;7.002;2023-03-23T17:07:53;5.45;;;2.22;;
78336;SDS011;67610;51.588;7.002;2023-03-23T17:10:20;5.75;;;2.20;;
78336;SDS011;67610;51.588;7.002;2023-03-23T17:12:46;5.13;;;2.30;;
78336;SDS011;67610;51.588;7.002;2023-03-23T17:15:12;5.72;;;2.00;;
78336;SDS011;67610;51.588;7.002;2023-03-23T17:17:37;5.10;;;2.15;;
78336;SDS011;67610;51.588;7.002;2023-03-23T17:20:03;4.22;;;2.25;;
78336;SDS011;67610;51.588;7.002;2023-03-23T17:22:30;4.85;;;2.10;;
78336;SDS011;67610;51.588;7.002;2023-03-23T17:24:55;6.28;;;2.20;;
78336;SDS011;67610;51.588;7.002;2023-03-23T17:27:22;4.30;;;2.28;;